createdAt,value
2023-01-18T00:01:15.495Z,98.59
2023-01-18T00:03:42.456Z,98.38
2023-01-18T00:06:11.481Z,98.13
2023-01-18T00:08:40.035Z,97.86
2023-01-18T00:11:13.131Z,98.21
2023-01-18T00:13:40.424Z,98.43
2023-01-18T00:16:13.261Z,98.61
2023-01-18T00:18:40.265Z,99.20
2023-01-18T00:21:10.207Z,99.66
2023-01-18T00:23:37.595Z,99.82
2023-01-18T00:26:08.469Z,99.66
2023-01-18T00:28:36.218Z,100.00
2023-01-18T00:31:12.408Z,99.55
2023-01-18T00:33:39.491Z,98.91
2023-01-18T00:36:06.748Z,98.95
2023-01-18T00:38:33.479Z,99.36
2023-01-18T00:41:00.262Z,100.00
2023-01-18T00:43:38.986Z,99.46
2023-01-18T00:46:12.192Z,99.10
2023-01-18T00:48:40.307Z,98.43
2023-01-18T00:51:08.897Z,97.70
2023-01-18T00:53:38.134Z,97.39
2023-01-18T00:56:11.595Z,98.77
2023-01-18T00:58:38.338Z,98.69
2023-01-18T01:01:07.447Z,98.72
2023-01-18T01:03:54.943Z,98.64
2023-01-18T01:06:46.616Z,98.87
2023-01-18T01:09:17.076Z,98.69
2023-01-18T01:12:04.743Z,98.46
2023-01-18T01:14:52.720Z,98.15
2023-01-18T01:17:38.213Z,97.59
2023-01-18T01:20:24.664Z,97.35
2023-01-18T01:23:10.196Z,97.38
2023-01-18T01:25:56.186Z,97.76
2023-01-18T01:28:23.247Z,98.27
2023-01-18T01:30:50.045Z,98.51
2023-01-18T01:33:18.602Z,98.79
2023-01-18T01:35:45.416Z,98.87
2023-01-18T01:38:12.190Z,97.86
2023-01-18T01:40:38.898Z,98.08
2023-01-18T01:43:12.956Z,98.21
2023-01-18T01:45:40.004Z,97.60
2023-01-18T01:48:09.883Z,96.85
2023-01-18T01:50:39.913Z,96.74
2023-01-18T01:53:07.144Z,96.05
2023-01-18T01:55:37.943Z,96.18
2023-01-18T02:00:44.033Z,96.11
2023-01-18T02:03:13.198Z,96.90
2023-01-18T02:05:48.038Z,97.29
2023-01-18T02:08:22.732Z,97.24
2023-01-18T02:10:51.391Z,97.38
2023-01-18T02:13:21.561Z,96.63
2023-01-18T02:16:07.867Z,96.92
2023-01-18T02:19:34.235Z,96.94
2023-01-18T02:22:45.376Z,96.58
2023-01-18T02:25:39.557Z,96.95
2023-01-18T02:28:17.193Z,96.63
2023-01-18T02:30:52.318Z,96.33
2023-01-18T02:33:43.372Z,96.82
2023-01-18T02:36:26.382Z,96.97
2023-01-18T02:39:01.939Z,97.49
2023-01-18T02:42:03.689Z,98.58
2023-01-18T02:44:59.755Z,99.65
2023-01-18T02:47:27.799Z,100.00
2023-01-18T02:49:57.402Z,100.00
2023-01-18T02:52:49.755Z,100.00
2023-01-18T02:55:46.677Z,100.00
2023-01-18T02:58:31.555Z,100.00
2023-01-18T03:01:13.335Z,99.92
2023-01-18T03:03:46.992Z,99.64
2023-01-18T03:06:14.359Z,100.00
2023-01-18T03:08:51.878Z,100.00
2023-01-18T03:11:29.888Z,99.97
2023-01-18T03:14:12.853Z,98.88
2023-01-18T03:17:19.196Z,98.64
2023-01-18T03:20:08.819Z,98.55
2023-01-18T03:23:24.970Z,98.59
2023-01-18T03:25:56.595Z,99.39
2023-01-18T03:28:48.688Z,99.97
2023-01-18T03:31:40.244Z,99.71
2023-01-18T03:34:17.716Z,99.99
2023-01-18T03:36:48.897Z,99.68
2023-01-18T03:39:40.425Z,100.00
2023-01-18T03:42:17.188Z,100.00
2023-01-18T03:44:53.159Z,100.00
2023-01-18T03:47:20.593Z,100.00
2023-01-18T03:49:47.675Z,99.78
2023-01-18T03:52:24.072Z,99.99
2023-01-18T03:55:11.179Z,100.00
2023-01-18T03:57:55.756Z,100.00
2023-01-18T04:00:22.611Z,100.00
2023-01-18T04:02:50.826Z,100.00
2023-01-18T04:05:18.311Z,100.00
2023-01-18T04:07:45.234Z,100.00
2023-01-18T04:10:12.188Z,100.00
2023-01-18T04:12:38.965Z,100.00
2023-01-18T04:15:06.578Z,100.00
2023-01-18T04:17:33.352Z,100.00
2023-01-18T04:20:00.114Z,100.00
2023-01-18T04:22:26.922Z,100.00
2023-01-18T04:24:53.721Z,100.00
2023-01-18T04:27:20.826Z,100.00
2023-01-18T04:29:48.312Z,100.00
2023-01-18T04:32:15.021Z,100.00
2023-01-18T04:34:41.750Z,100.00
2023-01-18T04:37:08.705Z,100.00
2023-01-18T04:39:35.452Z,100.00
2023-01-18T04:42:02.216Z,100.00
2023-01-18T04:44:28.959Z,100.00
2023-01-18T04:46:55.762Z,100.00
2023-01-18T04:49:22.549Z,100.00
2023-01-18T04:51:49.531Z,100.00
2023-01-18T04:54:18.561Z,100.00
2023-01-18T04:56:45.580Z,100.00
2023-01-18T04:59:17.390Z,100.00
2023-01-18T05:01:44.401Z,100.00
2023-01-18T05:04:11.267Z,100.00
2023-01-18T05:06:38.028Z,100.00
2023-01-18T05:09:04.844Z,100.00
2023-01-18T05:11:31.570Z,100.00
2023-01-18T05:13:58.412Z,100.00
2023-01-18T05:16:25.254Z,100.00
2023-01-18T05:18:52.117Z,100.00
2023-01-18T05:21:18.939Z,100.00
2023-01-18T05:23:45.903Z,100.00
2023-01-18T05:26:21.356Z,100.00
2023-01-18T05:28:49.730Z,100.00
2023-01-18T05:31:18.941Z,100.00
2023-01-18T05:33:45.735Z,100.00
2023-01-18T05:36:12.523Z,100.00
2023-01-18T05:38:39.258Z,100.00
2023-01-18T05:41:06.077Z,100.00
2023-01-18T05:43:34.550Z,100.00
2023-01-18T05:46:02.378Z,100.00
2023-01-18T05:48:29.233Z,100.00
2023-01-18T05:50:55.965Z,100.00
2023-01-18T05:53:23.390Z,100.00
2023-01-18T05:55:59.209Z,100.00
2023-01-18T05:58:27.744Z,100.00
2023-01-18T06:00:55.491Z,100.00
2023-01-18T06:03:23.629Z,100.00
2023-01-18T06:05:51.602Z,100.00
2023-01-18T06:08:19.355Z,100.00
2023-01-18T06:10:56.128Z,100.00
2023-01-18T06:13:24.481Z,100.00
2023-01-18T06:15:52.118Z,100.00
2023-01-18T06:18:19.006Z,100.00
2023-01-18T06:20:45.712Z,100.00
2023-01-18T06:23:12.542Z,100.00
2023-01-18T06:25:39.299Z,100.00
2023-01-18T06:28:06.400Z,100.00
2023-01-18T06:30:34.642Z,100.00
2023-01-18T06:33:06.705Z,100.00
2023-01-18T06:35:34.836Z,100.00
2023-01-18T06:38:03.317Z,100.00
2023-01-18T06:40:30.622Z,100.00
2023-01-18T06:42:57.952Z,100.00
2023-01-18T06:45:26.008Z,100.00
2023-01-18T06:47:53.512Z,100.00
2023-01-18T06:50:20.729Z,100.00
2023-01-18T06:52:47.760Z,100.00
2023-01-18T06:55:15.703Z,100.00
2023-01-18T06:57:42.505Z,100.00
2023-01-18T07:00:11.153Z,100.00
2023-01-18T07:02:38.715Z,100.00
2023-01-18T07:05:06.125Z,100.00
2023-01-18T07:07:33.155Z,100.00
2023-01-18T07:09:59.929Z,100.00
2023-01-18T07:12:26.739Z,100.00
2023-01-18T07:14:53.477Z,100.00
2023-01-18T07:17:20.173Z,100.00
2023-01-18T07:19:46.901Z,100.00
2023-01-18T07:22:13.768Z,100.00
2023-01-18T07:24:40.530Z,100.00
2023-01-18T07:27:07.332Z,100.00
2023-01-18T07:29:34.156Z,100.00
2023-01-18T07:32:01.348Z,100.00
2023-01-18T07:34:28.383Z,100.00
2023-01-18T07:36:55.186Z,100.00
2023-01-18T07:39:22.065Z,100.00
2023-01-18T07:41:48.840Z,100.00
2023-01-18T07:44:15.857Z,100.00
2023-01-18T07:46:43.357Z,99.39
2023-01-18T07:49:10.276Z,98.57
2023-01-18T07:51:37.376Z,97.77
2023-01-18T07:54:04.297Z,97.44
2023-01-18T07:56:31.086Z,96.95
2023-01-18T07:58:57.791Z,96.36
2023-01-18T08:01:25.059Z,96.23
2023-01-18T08:03:54.724Z,95.89
2023-01-18T08:06:27.333Z,95.36
2023-01-18T08:08:57.487Z,94.36
2023-01-18T08:11:24.585Z,94.30
2023-01-18T08:13:52.742Z,94.73
2023-01-18T08:16:19.885Z,94.47
2023-01-18T08:18:49.805Z,93.78
2023-01-18T08:21:16.674Z,93.85
2023-01-18T08:23:43.409Z,93.27
2023-01-18T08:26:12.917Z,93.39
2023-01-18T08:28:41.532Z,94.24
2023-01-18T08:31:19.859Z,92.87
2023-01-18T08:33:49.018Z,92.48
2023-01-18T08:36:19.406Z,92.43
2023-01-18T08:38:58.051Z,92.45
2023-01-18T08:41:28.976Z,91.82
2023-01-18T08:43:56.637Z,92.05
2023-01-18T08:46:24.019Z,92.69
2023-01-18T08:48:56.577Z,92.48
2023-01-18T08:51:26.098Z,92.14
2023-01-18T08:53:54.603Z,91.96
2023-01-18T08:56:21.813Z,91.14
2023-01-18T08:58:48.838Z,91.40
2023-01-18T09:01:15.736Z,91.54
2023-01-18T09:03:42.591Z,90.48
2023-01-18T09:06:12.660Z,89.45
2023-01-18T09:08:39.894Z,88.84
2023-01-18T09:11:10.051Z,87.77
2023-01-18T09:13:39.651Z,86.61
2023-01-18T09:16:11.297Z,86.57
2023-01-18T09:18:38.892Z,85.60
2023-01-18T09:21:11.405Z,85.07
2023-01-18T09:23:40.202Z,84.58
2023-01-18T09:26:17.019Z,85.00
2023-01-18T09:28:47.433Z,85.45
2023-01-18T09:31:14.260Z,85.51
2023-01-18T09:33:51.159Z,85.77
2023-01-18T09:36:21.623Z,86.46
2023-01-18T09:38:48.425Z,85.73
2023-01-18T09:41:39.458Z,86.23
2023-01-18T09:44:24.759Z,85.18
2023-01-18T09:47:10.382Z,84.87
2023-01-18T09:49:41.356Z,84.99
2023-01-18T09:52:19.623Z,83.83
2023-01-18T09:54:58.886Z,83.79
2023-01-18T09:58:00.142Z,84.21
2023-01-18T10:00:34.230Z,83.65
2023-01-18T10:03:08.910Z,83.11
2023-01-18T10:05:51.343Z,81.78
2023-01-18T10:08:28.519Z,81.36
2023-01-18T10:11:11.840Z,79.54
2023-01-18T10:13:43.516Z,79.49
2023-01-18T10:16:16.050Z,78.50
2023-01-18T10:18:46.542Z,79.13
2023-01-18T10:21:32.415Z,79.21
2023-01-18T10:24:16.793Z,79.25
2023-01-18T10:26:45.084Z,78.33
2023-01-18T10:30:02.181Z,76.19
2023-01-18T10:32:30.831Z,75.03
2023-01-18T10:34:57.935Z,75.71
2023-01-18T10:37:35.739Z,75.25
2023-01-18T10:40:07.738Z,75.14
2023-01-18T10:42:49.033Z,74.75
2023-01-18T10:45:22.666Z,74.72
2023-01-18T10:47:55.665Z,74.10
2023-01-18T10:50:40.037Z,72.94
2023-01-18T10:53:31.561Z,74.39
2023-01-18T10:56:14.747Z,73.66
2023-01-18T10:58:53.241Z,73.87
2023-01-18T11:01:25.672Z,73.14
2023-01-18T11:03:59.943Z,73.81
2023-01-18T11:06:27.139Z,72.64
2023-01-18T11:08:54.207Z,71.84
2023-01-18T11:11:46.549Z,74.35
2023-01-18T11:14:32.178Z,73.51
2023-01-18T11:17:11.083Z,72.67
2023-01-18T11:19:39.053Z,71.02
2023-01-18T11:22:13.299Z,71.82
2023-01-18T11:24:40.345Z,70.34
2023-01-18T11:27:23.287Z,71.90
2023-01-18T11:29:50.633Z,71.64
2023-01-18T11:32:27.256Z,71.29
2023-01-18T11:35:00.065Z,70.36
2023-01-18T11:37:31.166Z,70.60
2023-01-18T11:39:58.165Z,71.08
2023-01-18T11:42:36.570Z,71.55
2023-01-18T11:45:54.408Z,71.86
2023-01-18T11:48:48.641Z,72.79
2023-01-18T11:51:26.924Z,72.62
2023-01-18T11:54:28.948Z,73.12
2023-01-18T11:57:02.917Z,73.51
2023-01-18T11:59:37.310Z,74.22
2023-01-18T12:02:46.155Z,75.81
2023-01-18T12:05:40.846Z,74.36
2023-01-18T12:08:55.575Z,73.65
2023-01-18T12:11:50.305Z,73.03
2023-01-18T12:14:29.615Z,75.86
2023-01-18T12:17:24.999Z,75.06
2023-01-18T12:20:00.106Z,74.95
2023-01-18T12:23:09.419Z,73.99
2023-01-18T12:26:06.876Z,74.04
2023-01-18T12:29:08.171Z,73.28
2023-01-18T12:32:20.494Z,73.86
2023-01-18T12:35:24.543Z,73.50
2023-01-18T12:38:23.157Z,75.66
2023-01-18T12:41:17.776Z,75.94
2023-01-18T12:44:22.218Z,75.54
2023-01-18T12:47:04.465Z,75.04
2023-01-18T12:49:39.970Z,75.86
2023-01-18T12:52:18.680Z,76.47
2023-01-18T12:54:56.206Z,75.64
2023-01-18T12:57:24.211Z,74.60
2023-01-18T13:00:15.424Z,74.48
2023-01-18T13:02:47.521Z,74.73
2023-01-18T13:05:52.601Z,74.59
2023-01-18T13:08:42.641Z,75.52
2023-01-18T13:11:22.451Z,75.22
2023-01-18T13:14:01.980Z,75.61
2023-01-18T13:16:55.847Z,75.50
2023-01-18T13:19:29.433Z,75.32
2023-01-18T13:22:09.213Z,75.32
2023-01-18T13:25:40.487Z,75.61
2023-01-18T13:28:20.910Z,76.01
2023-01-18T13:31:01.828Z,75.85
2023-01-18T13:33:44.200Z,76.56
2023-01-18T13:36:17.402Z,75.89
2023-01-18T13:38:54.637Z,75.99
2023-01-18T13:41:30.611Z,76.58
2023-01-18T13:44:25.659Z,77.26
2023-01-18T13:46:52.430Z,76.79
2023-01-18T13:49:36.077Z,76.80
2023-01-18T13:52:35.826Z,76.43
2023-01-18T13:55:31.210Z,76.69
2023-01-18T13:57:58.479Z,76.18
2023-01-18T14:00:26.734Z,76.29
2023-01-18T14:03:03.802Z,76.68
2023-01-18T14:05:45.582Z,76.89
2023-01-18T14:08:29.333Z,77.71
2023-01-18T14:11:04.946Z,76.92
2023-01-18T14:13:46.538Z,77.10
2023-01-18T14:16:24.597Z,77.22
2023-01-18T14:19:02.305Z,77.19
2023-01-18T14:22:02.343Z,76.93
2023-01-18T14:25:00.354Z,77.21
2023-01-18T14:27:33.756Z,77.00
2023-01-18T14:30:13.515Z,77.23
2023-01-18T14:32:49.349Z,77.02
2023-01-18T14:35:25.939Z,77.40
2023-01-18T14:37:54.290Z,76.90
2023-01-18T14:40:26.488Z,76.73
2023-01-18T14:43:01.213Z,76.93
2023-01-18T14:45:38.816Z,77.88
2023-01-18T14:48:12.353Z,76.26
2023-01-18T14:50:45.864Z,75.65
2023-01-18T14:53:21.456Z,75.24
2023-01-18T14:56:11.931Z,76.63
2023-01-18T14:58:54.533Z,75.49
2023-01-18T15:01:29.114Z,76.49
2023-01-18T15:03:59.367Z,76.20
2023-01-18T15:06:52.233Z,75.98
2023-01-18T15:09:22.624Z,76.68
2023-01-18T15:11:53.100Z,76.57
2023-01-18T15:14:33.206Z,76.78
2023-01-18T15:17:01.312Z,76.80
2023-01-18T15:19:45.651Z,75.90
2023-01-18T15:22:17.521Z,76.65
2023-01-18T15:24:45.813Z,76.74
2023-01-18T15:27:18.731Z,76.91
2023-01-18T15:29:53.563Z,77.12
2023-01-18T15:32:23.222Z,77.24
2023-01-18T15:34:52.126Z,76.89
2023-01-18T15:37:27.560Z,76.89
2023-01-18T15:39:57.859Z,76.57
2023-01-18T15:42:59.173Z,77.55
2023-01-18T15:45:38.934Z,77.44
2023-01-18T15:48:13.478Z,77.98
2023-01-18T15:50:52.536Z,77.94
2023-01-18T15:53:30.521Z,78.31
2023-01-18T15:56:03.454Z,78.97
2023-01-18T15:58:39.253Z,78.82
2023-01-18T16:01:17.621Z,79.47
2023-01-18T16:03:50.361Z,78.82
2023-01-18T16:06:22.720Z,78.32
2023-01-18T16:09:12.877Z,79.06
2023-01-18T16:11:54.681Z,79.84
2023-01-18T16:14:35.874Z,80.48
2023-01-18T16:17:16.452Z,80.95
2023-01-18T16:19:57.803Z,81.61
2023-01-18T16:22:37.303Z,80.86
2023-01-18T16:25:23.556Z,80.12
2023-01-18T16:28:00.607Z,79.83
2023-01-18T16:30:34.942Z,79.98
2023-01-18T16:33:28.179Z,80.06
2023-01-18T16:35:54.811Z,79.88
2023-01-18T16:38:21.543Z,78.93
2023-01-18T16:40:50.506Z,79.12
2023-01-18T16:43:27.513Z,79.64
2023-01-18T16:45:59.038Z,79.44
2023-01-18T16:48:28.348Z,79.28
2023-01-18T16:51:01.688Z,79.13
2023-01-18T16:53:31.837Z,78.76
2023-01-18T16:55:58.545Z,79.73
2023-01-18T16:58:26.389Z,80.92
2023-01-18T17:01:01.290Z,80.17
2023-01-18T17:03:28.185Z,80.04
2023-01-18T17:05:55.613Z,80.70
2023-01-18T17:08:22.452Z,80.81
2023-01-18T17:10:51.561Z,80.62
2023-01-18T17:13:18.588Z,80.86
2023-01-18T17:15:45.727Z,80.28
2023-01-18T17:18:20.860Z,79.99
2023-01-18T17:20:47.676Z,81.70
2023-01-18T17:23:14.457Z,82.21
2023-01-18T17:25:41.456Z,82.52
2023-01-18T17:28:08.740Z,82.87
2023-01-18T17:30:37.904Z,82.62
2023-01-18T17:33:04.734Z,82.77
2023-01-18T17:35:32.291Z,83.25
2023-01-18T17:38:06.708Z,83.59
2023-01-18T17:40:44.561Z,82.84
2023-01-18T17:43:28.535Z,83.06
2023-01-18T17:46:01.862Z,83.56
2023-01-18T17:48:29.175Z,83.03
2023-01-18T17:50:56.049Z,83.55
2023-01-18T17:53:22.830Z,83.25
2023-01-18T17:55:50.116Z,84.03
2023-01-18T17:58:16.861Z,84.14
2023-01-18T18:00:43.589Z,83.85
2023-01-18T18:03:10.498Z,85.01
2023-01-18T18:05:37.246Z,85.77
2023-01-18T18:08:04.260Z,85.86
2023-01-18T18:10:31.252Z,85.37
2023-01-18T18:12:58.505Z,86.65
2023-01-18T18:15:25.849Z,86.47
2023-01-18T18:17:52.590Z,86.49
2023-01-18T18:20:21.391Z,85.46
2023-01-18T18:22:48.854Z,82.44
2023-01-18T18:25:15.585Z,83.95
2023-01-18T18:27:46.453Z,84.50
2023-01-18T18:30:14.603Z,83.59
2023-01-18T18:32:41.415Z,83.39
2023-01-18T18:35:23.870Z,84.31
2023-01-18T18:37:52.282Z,84.08
2023-01-18T18:40:19.375Z,83.56
2023-01-18T18:42:56.436Z,83.81
2023-01-18T18:45:27.583Z,82.94
2023-01-18T18:47:54.353Z,81.98
2023-01-18T18:50:21.128Z,83.35
2023-01-18T18:52:47.978Z,82.91
2023-01-18T18:55:14.867Z,83.57
2023-01-18T18:57:41.766Z,82.54
2023-01-18T19:00:09.879Z,82.25
2023-01-18T19:02:36.809Z,79.82
2023-01-18T19:05:04.049Z,80.24
2023-01-18T19:07:31.137Z,79.35
2023-01-18T19:09:57.876Z,78.46
2023-01-18T19:12:24.701Z,79.59
2023-01-18T19:14:51.816Z,80.55
2023-01-18T19:17:28.900Z,81.01
2023-01-18T19:19:56.854Z,81.05
2023-01-18T19:22:23.616Z,80.62
2023-01-18T19:24:50.367Z,80.76
2023-01-18T19:27:17.110Z,81.38
2023-01-18T19:29:44.075Z,81.01
2023-01-18T19:32:10.821Z,79.74
2023-01-18T19:34:40.323Z,80.75
2023-01-18T19:37:07.415Z,80.60
2023-01-18T19:39:35.044Z,81.26
2023-01-18T19:42:02.517Z,80.54
2023-01-18T19:44:29.903Z,81.04
2023-01-18T19:46:57.199Z,80.21
2023-01-18T19:49:27.536Z,81.92
2023-01-18T19:51:54.789Z,82.37
2023-01-18T19:54:22.305Z,82.88
2023-01-18T19:56:49.498Z,82.61
2023-01-18T19:59:16.481Z,84.03
2023-01-18T20:01:43.423Z,84.51
2023-01-18T20:04:13.008Z,84.98
2023-01-18T20:06:40.011Z,84.56
2023-01-18T20:09:18.506Z,85.06
2023-01-18T20:11:47.469Z,84.99
2023-01-18T20:14:14.590Z,85.64
2023-01-18T20:16:42.836Z,84.90
2023-01-18T20:19:13.875Z,84.90
2023-01-18T20:21:40.729Z,84.80
2023-01-18T20:24:08.037Z,84.49
2023-01-18T20:26:38.078Z,84.45
2023-01-18T20:29:07.278Z,84.84
2023-01-18T20:31:36.654Z,85.06
2023-01-18T20:34:05.039Z,84.28
2023-01-18T20:36:32.213Z,84.34
2023-01-18T20:38:59.053Z,83.63
2023-01-18T20:41:25.813Z,84.31
2023-01-18T20:43:52.677Z,83.18
2023-01-18T20:46:19.431Z,83.25
2023-01-18T20:48:46.186Z,83.01
2023-01-18T20:51:13.253Z,84.41
2023-01-18T20:53:40.001Z,83.71
2023-01-18T20:56:23.343Z,83.43
2023-01-18T20:58:54.915Z,84.28
2023-01-18T21:01:21.859Z,84.50
2023-01-18T21:03:55.434Z,84.30
2023-01-18T21:06:22.300Z,83.48
2023-01-18T21:08:53.029Z,81.77
2023-01-18T21:11:25.339Z,81.69
2023-01-18T21:13:55.250Z,82.03
2023-01-18T21:16:23.571Z,82.06
2023-01-18T21:18:52.768Z,81.65
2023-01-18T21:21:20.680Z,80.91
2023-01-18T21:23:47.482Z,81.75
2023-01-18T21:26:14.793Z,81.55
2023-01-18T21:28:41.731Z,81.16
2023-01-18T21:31:08.926Z,81.68
2023-01-18T21:33:35.730Z,80.95
2023-01-18T21:36:05.484Z,81.27
2023-01-18T21:38:32.392Z,81.63
2023-01-18T21:41:19.294Z,81.78
2023-01-18T21:44:04.548Z,81.97
2023-01-18T21:46:31.542Z,82.27
2023-01-18T21:49:03.986Z,82.57
2023-01-18T21:51:49.109Z,82.78
2023-01-18T21:54:16.031Z,83.16
2023-01-18T21:56:44.772Z,83.41
2023-01-18T21:59:13.181Z,83.53
2023-01-18T22:01:43.910Z,83.51
2023-01-18T22:04:32.413Z,83.94
2023-01-18T22:07:00.164Z,84.17
2023-01-18T22:09:28.536Z,83.97
2023-01-18T22:11:59.756Z,84.32
2023-01-18T22:14:27.575Z,84.05
2023-01-18T22:16:54.315Z,83.49
2023-01-18T22:19:21.093Z,83.91
2023-01-18T22:21:48.802Z,84.03
2023-01-18T22:24:17.404Z,84.20
2023-01-18T22:26:45.419Z,84.20
2023-01-18T22:29:13.005Z,84.35
2023-01-18T22:31:40.179Z,84.42
2023-01-18T22:34:07.718Z,83.59
2023-01-18T22:36:34.701Z,83.83
2023-01-18T22:39:01.440Z,84.24
2023-01-18T22:41:29.442Z,84.20
2023-01-18T22:43:56.964Z,84.13
2023-01-18T22:46:24.658Z,84.07
2023-01-18T22:48:52.084Z,84.52
2023-01-18T22:51:23.615Z,84.91
2023-01-18T22:53:51.568Z,85.38
2023-01-18T22:56:22.379Z,84.98
2023-01-18T22:58:49.871Z,85.34
2023-01-18T23:01:26.408Z,85.74
2023-01-18T23:03:57.638Z,85.78
2023-01-18T23:06:25.068Z,86.37
2023-01-18T23:08:52.722Z,86.15
2023-01-18T23:11:27.441Z,86.29
2023-01-18T23:14:15.989Z,86.93
2023-01-18T23:17:02.508Z,86.92
2023-01-18T23:19:30.870Z,86.86
2023-01-18T23:21:58.132Z,87.09
2023-01-18T23:24:25.361Z,87.54
2023-01-18T23:26:52.555Z,87.31
2023-01-18T23:29:20.499Z,87.30
2023-01-18T23:31:47.398Z,87.08
2023-01-18T23:34:14.259Z,87.45
2023-01-18T23:36:41.027Z,87.01
2023-01-18T23:39:26.605Z,87.06
2023-01-18T23:42:12.224Z,87.33
2023-01-18T23:44:57.401Z,87.46
2023-01-18T23:47:43.216Z,87.71
2023-01-18T23:50:29.142Z,87.78
2023-01-18T23:53:14.639Z,87.87
2023-01-18T23:55:41.581Z,88.06
2023-01-18T23:58:08.365Z,87.91
